sensor_id;sensor_type;location;lat;lon;timestamp;pressure;altitude;pressure_sealevel;temperature;humidity
73341;BME280;61578;52.002;5.468;2023-04-06T00:00:13;101791.25;;;4.14;64.13
73341;BME280;61578;52.002;5.468;2023-04-06T00:00:45;101781.69;;;4.12;64.27
73341;BME280;61578;52.002;5.468;2023-04-06T00:01:15;101778.31;;;4.06;63.94
73341;BME280;61578;52.002;5.468;2023-04-06T00:01:46;101786.09;;;4.10;64.33
73341;BME280;61578;52.002;5.468;2023-04-06T00:02:17;101779.97;;;4.09;64.38
73341;BME280;61578;52.002;5.468;2023-04-06T00:02:48;101779.94;;;4.11;65.08
73341;BME280;61578;52.002;5.468;2023-04-06T00:03:18;101772.06;;;4.11;64.37
73341;BME280;61578;52.002;5.468;2023-04-06T00:03:49;101786.94;;;4.12;64.24
73341;BME280;61578;52.002;5.468;2023-04-06T00:04:23;101784.38;;;4.08;64.17
73341;BME280;61578;52.002;5.468;2023-04-06T00:04:54;101770.34;;;4.08;65.12
73341;BME280;61578;52.002;5.468;2023-04-06T00:05:24;101754.91;;;3.94;64.68
73341;BME280;61578;52.002;5.468;2023-04-06T00:06:00;101781.72;;;4.08;64.78
73341;BME280;61578;52.002;5.468;2023-04-06T00:06:34;101773.84;;;4.08;64.94
73341;BME280;61578;52.002;5.468;2023-04-06T00:07:05;101772.94;;;4.11;64.55
73341;BME280;61578;52.002;5.468;2023-04-06T00:07:36;101775.56;;;4.11;64.25
73341;BME280;61578;52.002;5.468;2023-04-06T00:08:07;101771.16;;;4.12;64.80
73341;BME280;61578;52.002;5.468;2023-04-06T00:08:41;101779.94;;;4.11;64.48
73341;BME280;61578;52.002;5.468;2023-04-06T00:09:12;101764.38;;;4.01;64.53
73341;BME280;61578;52.002;5.468;2023-04-06T00:09:43;101771.22;;;4.08;64.25
73341;BME280;61578;52.002;5.468;2023-04-06T00:10:16;101779.16;;;4.07;64.36
73341;BME280;61578;52.002;5.468;2023-04-06T00:10:47;101774.75;;;4.07;64.29
73341;BME280;61578;52.002;5.468;2023-04-06T00:11:19;101780.00;;;4.07;64.25
73341;BME280;61578;52.002;5.468;2023-04-06T00:11:50;101773.94;;;4.05;64.73
73341;BME280;61578;52.002;5.468;2023-04-06T00:12:27;101772.22;;;4.04;64.07
73341;BME280;61578;52.002;5.468;2023-04-06T00:12:58;101773.06;;;4.05;64.46
73341;BME280;61578;52.002;5.468;2023-04-06T00:13:29;101780.06;;;4.06;64.77
73341;BME280;61578;52.002;5.468;2023-04-06T00:14:00;101776.47;;;4.08;64.67
73341;BME280;61578;52.002;5.468;2023-04-06T00:14:31;101773.06;;;4.05;64.79
73341;BME280;61578;52.002;5.468;2023-04-06T00:15:02;101766.06;;;4.05;65.46
73341;BME280;61578;52.002;5.468;2023-04-06T00:15:36;101767.78;;;4.06;64.83
73341;BME280;61578;52.002;5.468;2023-04-06T00:16:10;101774.03;;;4.01;63.83
73341;BME280;61578;52.002;5.468;2023-04-06T00:16:40;101776.63;;;4.02;64.87
73341;BME280;61578;52.002;5.468;2023-04-06T00:17:11;101774.09;;;3.98;64.29
73341;BME280;61578;52.002;5.468;2023-04-06T00:17:42;101774.94;;;3.98;65.02
73341;BME280;61578;52.002;5.468;2023-04-06T00:18:13;101770.56;;;3.99;65.00
73341;BME280;61578;52.002;5.468;2023-04-06T00:18:44;101773.13;;;4.02;64.93
73341;BME280;61578;52.002;5.468;2023-04-06T00:19:15;101771.41;;;4.01;65.11
73341;BME280;61578;52.002;5.468;2023-04-06T00:19:48;101777.56;;;4.00;64.82
73341;BME280;61578;52.002;5.468;2023-04-06T00:20:19;101767.16;;;3.95;64.79
73341;BME280;61578;52.002;5.468;2023-04-06T00:20:50;101770.66;;;3.96;65.03
73341;BME280;61578;52.002;5.468;2023-04-06T00:21:21;101767.16;;;3.95;64.65
73341;BME280;61578;52.002;5.468;2023-04-06T00:21:52;101769.78;;;3.95;64.66
73341;BME280;61578;52.002;5.468;2023-04-06T00:22:25;101773.28;;;3.96;65.53
73341;BME280;61578;52.002;5.468;2023-04-06T00:23:02;101777.66;;;3.97;65.11
73341;BME280;61578;52.002;5.468;2023-04-06T00:23:33;101770.66;;;3.96;65.03
73341;BME280;61578;52.002;5.468;2023-04-06T00:24:04;101766.28;;;3.95;64.29
73341;BME280;61578;52.002;5.468;2023-04-06T00:24:35;101768.91;;;3.95;64.52
73341;BME280;61578;52.002;5.468;2023-04-06T00:25:06;101763.72;;;3.92;64.90
73341;BME280;61578;52.002;5.468;2023-04-06T00:25:37;101769.78;;;3.95;64.60
73341;BME280;61578;52.002;5.468;2023-04-06T00:26:11;101768.06;;;3.94;64.85
73341;BME280;61578;52.002;5.468;2023-04-06T00:26:42;101765.41;;;3.96;65.12
73341;BME280;61578;52.002;5.468;2023-04-06T00:27:16;101767.97;;;3.97;64.93
73341;BME280;61578;52.002;5.468;2023-04-06T00:27:46;101761.91;;;3.95;64.37
73341;BME280;61578;52.002;5.468;2023-04-06T00:28:17;101766.25;;;3.96;64.08
73341;BME280;61578;52.002;5.468;2023-04-06T00:28:50;101767.22;;;3.92;63.93
73341;BME280;61578;52.002;5.468;2023-04-06T00:29:22;101761.06;;;3.93;64.69
73341;BME280;61578;52.002;5.468;2023-04-06T00:29:53;101762.81;;;3.94;64.63
73341;BME280;61578;52.002;5.468;2023-04-06T00:30:24;101762.81;;;3.94;64.64
73341;BME280;61578;52.002;5.468;2023-04-06T00:30:55;101759.38;;;3.91;64.59
73341;BME280;61578;52.002;5.468;2023-04-06T00:31:31;101760.25;;;3.90;64.83
73341;BME280;61578;52.002;5.468;2023-04-06T00:32:02;101761.16;;;3.89;64.65
73341;BME280;61578;52.002;5.468;2023-04-06T00:32:34;101742.91;;;3.83;64.63
73341;BME280;61578;52.002;5.468;2023-04-06T00:33:09;101757.59;;;3.91;65.68
73341;BME280;61578;52.002;5.468;2023-04-06T00:33:40;101755.88;;;3.90;65.42
73341;BME280;61578;52.002;5.468;2023-04-06T00:34:10;101748.88;;;3.89;65.31
73341;BME280;61578;52.002;5.468;2023-04-06T00:34:41;101757.56;;;3.93;65.16
73341;BME280;61578;52.002;5.468;2023-04-06T00:35:12;101760.16;;;3.96;65.09
73341;BME280;61578;52.002;5.468;2023-04-06T00:35:43;101753.16;;;3.95;65.04
73341;BME280;61578;52.002;5.468;2023-04-06T00:36:13;101753.06;;;3.98;64.76
73341;BME280;61578;52.002;5.468;2023-04-06T00:36:47;101753.91;;;4.00;65.02
73341;BME280;61578;52.002;5.468;2023-04-06T00:37:19;101747.78;;;3.99;64.63
73341;BME280;61578;52.002;5.468;2023-04-06T00:37:52;101743.50;;;3.97;64.72
73341;BME280;61578;52.002;5.468;2023-04-06T00:38:22;101743.44;;;3.98;65.30
73341;BME280;61578;52.002;5.468;2023-04-06T00:38:53;101748.69;;;3.98;65.07
73341;BME280;61578;52.002;5.468;2023-04-06T00:39:24;101746.06;;;3.98;64.92
73341;BME280;61578;52.002;5.468;2023-04-06T00:39:55;101741.69;;;3.97;65.12
73341;BME280;61578;52.002;5.468;2023-04-06T00:40:26;101740.84;;;3.97;65.25
73341;BME280;61578;52.002;5.468;2023-04-06T00:40:58;101734.06;;;3.87;65.27
73341;BME280;61578;52.002;5.468;2023-04-06T00:41:30;101745.25;;;3.96;65.18
73341;BME280;61578;52.002;5.468;2023-04-06T00:42:10;101747.88;;;3.96;65.08
73341;BME280;61578;52.002;5.468;2023-04-06T00:42:45;101740.84;;;3.97;65.42
73341;BME280;61578;52.002;5.468;2023-04-06T00:43:16;101744.31;;;3.97;65.05
73341;BME280;61578;52.002;5.468;2023-04-06T00:43:46;101745.19;;;3.98;64.95
73341;BME280;61578;52.002;5.468;2023-04-06T00:44:18;101747.81;;;3.98;64.07
73341;BME280;61578;52.002;5.468;2023-04-06T00:44:49;101737.25;;;4.01;64.76
73341;BME280;61578;52.002;5.468;2023-04-06T00:45:20;101737.25;;;4.01;64.55
73341;BME280;61578;52.002;5.468;2023-04-06T00:45:54;101747.66;;;4.05;64.84
73341;BME280;61578;52.002;5.468;2023-04-06T00:46:25;101744.19;;;4.05;65.57
73341;BME280;61578;52.002;5.468;2023-04-06T00:46:56;101738.06;;;4.04;65.31
73341;BME280;61578;52.002;5.468;2023-04-06T00:47:28;101738.88;;;4.06;65.51
73341;BME280;61578;52.002;5.468;2023-04-06T00:47:59;101745.81;;;4.09;64.66
73341;BME280;61578;52.002;5.468;2023-04-06T00:48:30;101741.50;;;4.06;65.02
73341;BME280;61578;52.002;5.468;2023-04-06T00:49:04;101734.53;;;4.05;64.48
73341;BME280;61578;52.002;5.468;2023-04-06T00:49:37;101741.56;;;4.03;64.60
73341;BME280;61578;52.002;5.468;2023-04-06T00:50:08;101735.47;;;4.01;64.82
73341;BME280;61578;52.002;5.468;2023-04-06T00:50:39;101733.69;;;4.03;65.30
73341;BME280;61578;52.002;5.468;2023-04-06T00:51:11;101738.94;;;4.03;64.89
73341;BME280;61578;52.002;5.468;2023-04-06T00:51:42;101738.09;;;4.03;64.40
73341;BME280;61578;52.002;5.468;2023-04-06T00:52:13;101733.72;;;4.02;65.14
73341;BME280;61578;52.002;5.468;2023-04-06T00:52:53;101735.44;;;4.03;65.39
73341;BME280;61578;52.002;5.468;2023-04-06T00:53:24;101738.97;;;4.02;64.69
73341;BME280;61578;52.002;5.468;2023-04-06T00:53:55;101733.75;;;4.00;64.74
73341;BME280;61578;52.002;5.468;2023-04-06T00:54:27;101732.91;;;3.98;64.40
73341;BME280;61578;52.002;5.468;2023-04-06T00:55:03;101733.75;;;4.00;64.67
73341;BME280;61578;52.002;5.468;2023-04-06T00:55:34;101735.50;;;4.00;64.39
73341;BME280;61578;52.002;5.468;2023-04-06T00:56:06;101732.03;;;3.99;64.81
73341;BME280;61578;52.002;5.468;2023-04-06T00:56:41;101731.13;;;4.00;64.08
73341;BME280;61578;52.002;5.468;2023-04-06T00:57:14;101731.09;;;4.02;64.53
73341;BME280;61578;52.002;5.468;2023-04-06T00:57:45;101728.50;;;4.00;64.98
73341;BME280;61578;52.002;5.468;2023-04-06T00:58:15;101729.34;;;4.02;64.85
73341;BME280;61578;52.002;5.468;2023-04-06T00:58:46;101735.44;;;4.03;64.51
73341;BME280;61578;52.002;5.468;2023-04-06T00:59:17;101721.47;;;4.01;64.81
73341;BME280;61578;52.002;5.468;2023-04-06T00:59:52;101729.34;;;4.02;65.52
73341;BME280;61578;52.002;5.468;2023-04-06T01:00:23;101725.81;;;4.03;65.29
73341;BME280;61578;52.002;5.468;2023-04-06T01:00:54;101731.94;;;4.04;65.09
73341;BME280;61578;52.002;5.468;2023-04-06T01:01:25;101725.81;;;4.03;64.72
73341;BME280;61578;52.002;5.468;2023-04-06T01:02:00;101731.97;;;4.02;65.01
73341;BME280;61578;52.002;5.468;2023-04-06T01:02:31;101718.03;;;3.99;65.13
73341;BME280;61578;52.002;5.468;2023-04-06T01:03:02;101712.88;;;3.94;64.69
73341;BME280;61578;52.002;5.468;2023-04-06T01:03:36;101716.34;;;3.96;64.85
73341;BME280;61578;52.002;5.468;2023-04-06T01:04:07;101719.84;;;3.97;65.25
73341;BME280;61578;52.002;5.468;2023-04-06T01:04:38;101722.50;;;3.95;65.67
73341;BME280;61578;52.002;5.468;2023-04-06T01:05:09;101725.09;;;3.97;65.55
73341;BME280;61578;52.002;5.468;2023-04-06T01:06:00;101722.47;;;3.97;65.41
73341;BME280;61578;52.002;5.468;2023-04-06T01:06:31;101723.38;;;3.96;65.43
73341;BME280;61578;52.002;5.468;2023-04-06T01:07:02;101718.91;;;3.98;65.30
73341;BME280;61578;52.002;5.468;2023-04-06T01:07:32;101720.69;;;3.97;65.55
73341;BME280;61578;52.002;5.468;2023-04-06T01:08:03;101721.59;;;3.96;65.25
73341;BME280;61578;52.002;5.468;2023-04-06T01:08:34;101718.03;;;3.97;65.19
73341;BME280;61578;52.002;5.468;2023-04-06T01:09:05;101715.34;;;4.00;64.72
73341;BME280;61578;52.002;5.468;2023-04-06T01:09:35;101717.09;;;4.01;65.34
73341;BME280;61578;52.002;5.468;2023-04-06T01:10:06;101724.94;;;4.03;65.18
73341;BME280;61578;52.002;5.468;2023-04-06T01:10:37;101722.28;;;4.04;65.46
73341;BME280;61578;52.002;5.468;2023-04-06T01:11:08;101712.63;;;4.05;65.63
73341;BME280;61578;52.002;5.468;2023-04-06T01:11:39;101709.97;;;4.06;65.05
73341;BME280;61578;52.002;5.468;2023-04-06T01:12:12;101713.41;;;4.08;64.62
73341;BME280;61578;52.002;5.468;2023-04-06T01:12:43;101719.63;;;4.06;64.88
73341;BME280;61578;52.002;5.468;2023-04-06T01:13:17;101713.41;;;4.08;65.95
73341;BME280;61578;52.002;5.468;2023-04-06T01:13:48;101694.34;;;4.00;64.59
73341;BME280;61578;52.002;5.468;2023-04-06T01:14:20;101707.34;;;4.06;65.12
73341;BME280;61578;52.002;5.468;2023-04-06T01:14:51;101710.78;;;4.08;65.70
73341;BME280;61578;52.002;5.468;2023-04-06T01:15:26;101713.34;;;4.12;65.56
73341;BME280;61578;52.002;5.468;2023-04-06T01:15:59;101713.34;;;4.12;65.65
73341;BME280;61578;52.002;5.468;2023-04-06T01:16:30;101711.56;;;4.14;66.06
73341;BME280;61578;52.002;5.468;2023-04-06T01:17:01;101706.28;;;4.15;65.74
73341;BME280;61578;52.002;5.468;2023-04-06T01:17:31;101705.41;;;4.15;65.19
73341;BME280;61578;52.002;5.468;2023-04-06T01:18:02;101709.75;;;4.16;65.55
73341;BME280;61578;52.002;5.468;2023-04-06T01:18:35;101714.13;;;4.17;65.94
73341;BME280;61578;52.002;5.468;2023-04-06T01:19:09;101711.53;;;4.15;65.23
73341;BME280;61578;52.002;5.468;2023-04-06T01:19:43;101713.19;;;4.18;64.95
73341;BME280;61578;52.002;5.468;2023-04-06T01:20:15;101713.19;;;4.18;66.31
73341;BME280;61578;52.002;5.468;2023-04-06T01:20:46;101714.06;;;4.18;65.98
73341;BME280;61578;52.002;5.468;2023-04-06T01:21:17;101708.00;;;4.16;65.86
73341;BME280;61578;52.002;5.468;2023-04-06T01:21:48;101714.13;;;4.17;65.76
73341;BME280;61578;52.002;5.468;2023-04-06T01:22:19;101707.94;;;4.18;65.92
73341;BME280;61578;52.002;5.468;2023-04-06T01:22:50;101709.66;;;4.19;65.37
73341;BME280;61578;52.002;5.468;2023-04-06T01:23:21;101707.00;;;4.20;65.45
73341;BME280;61578;52.002;5.468;2023-04-06T01:23:52;101714.03;;;4.20;64.91
73341;BME280;61578;52.002;5.468;2023-04-06T01:24:23;101714.91;;;4.20;65.32
73341;BME280;61578;52.002;5.468;2023-04-06T01:24:53;101703.38;;;4.26;65.89
73341;BME280;61578;52.002;5.468;2023-04-06T01:25:27;101698.94;;;4.28;65.42
73341;BME280;61578;52.002;5.468;2023-04-06T01:25:58;101705.84;;;4.32;65.74
73341;BME280;61578;52.002;5.468;2023-04-06T01:26:29;101687.59;;;4.27;65.44
73341;BME280;61578;52.002;5.468;2023-04-06T01:27:02;101694.34;;;4.37;65.44
73341;BME280;61578;52.002;5.468;2023-04-06T01:27:33;101707.34;;;4.42;65.09
73341;BME280;61578;52.002;5.468;2023-04-06T01:28:06;101702.06;;;4.43;65.13
73341;BME280;61578;52.002;5.468;2023-04-06T01:28:37;101696.78;;;4.45;65.14
73341;BME280;61578;52.002;5.468;2023-04-06T01:29:11;101683.72;;;4.40;64.93
73341;BME280;61578;52.002;5.468;2023-04-06T01:29:42;101693.16;;;4.49;65.30
73341;BME280;61578;52.002;5.468;2023-04-06T01:30:13;101700.97;;;4.52;64.96
73341;BME280;61578;52.002;5.468;2023-04-06T01:30:44;101700.06;;;4.53;64.92
73341;BME280;61578;52.002;5.468;2023-04-06T01:31:15;101697.44;;;4.53;65.12
73341;BME280;61578;52.002;5.468;2023-04-06T01:31:46;101702.63;;;4.56;64.42
73341;BME280;61578;52.002;5.468;2023-04-06T01:32:16;101694.69;;;4.58;64.50
73341;BME280;61578;52.002;5.468;2023-04-06T01:32:50;101690.34;;;4.57;65.22
73341;BME280;61578;52.002;5.468;2023-04-06T01:33:20;101700.69;;;4.63;64.79
73341;BME280;61578;52.002;5.468;2023-04-06T01:33:54;101696.25;;;4.65;64.65
73341;BME280;61578;52.002;5.468;2023-04-06T01:34:25;101696.22;;;4.66;64.93
73341;BME280;61578;52.002;5.468;2023-04-06T01:34:59;101690.94;;;4.68;64.58
73341;BME280;61578;52.002;5.468;2023-04-06T01:35:32;101675.47;;;4.56;64.33
73341;BME280;61578;52.002;5.468;2023-04-06T01:36:06;101696.91;;;4.73;63.98
73341;BME280;61578;52.002;5.468;2023-04-06T01:36:37;101691.69;;;4.71;64.07
73341;BME280;61578;52.002;5.468;2023-04-06T01:37:08;101699.50;;;4.74;64.14
73341;BME280;61578;52.002;5.468;2023-04-06T01:37:39;101694.25;;;4.74;64.65
73341;BME280;61578;52.002;5.468;2023-04-06T01:38:10;101689.81;;;4.76;64.54
73341;BME280;61578;52.002;5.468;2023-04-06T01:38:41;101688.91;;;4.77;64.57
73341;BME280;61578;52.002;5.468;2023-04-06T01:39:12;101680.22;;;4.74;64.05
73341;BME280;61578;52.002;5.468;2023-04-06T01:39:44;101687.94;;;4.80;64.30
73341;BME280;61578;52.002;5.468;2023-04-06T01:40:15;101687.09;;;4.79;64.56
73341;BME280;61578;52.002;5.468;2023-04-06T01:40:46;101690.53;;;4.81;64.33
73341;BME280;61578;52.002;5.468;2023-04-06T01:41:17;101684.38;;;4.82;63.46
73341;BME280;61578;52.002;5.468;2023-04-06T01:41:47;101684.34;;;4.84;63.27
73341;BME280;61578;52.002;5.468;2023-04-06T01:42:18;101683.47;;;4.84;63.88
73341;BME280;61578;52.002;5.468;2023-04-06T01:42:49;101688.66;;;4.87;64.63
73341;BME280;61578;52.002;5.468;2023-04-06T01:43:20;101686.84;;;4.89;65.01
73341;BME280;61578;52.002;5.468;2023-04-06T01:43:51;101682.44;;;4.89;63.77
73341;BME280;61578;52.002;5.468;2023-04-06T01:44:24;101689.41;;;4.92;64.38
73341;BME280;61578;52.002;5.468;2023-04-06T01:44:55;101681.38;;;4.96;62.89
73341;BME280;61578;52.002;5.468;2023-04-06T01:45:26;101672.75;;;4.91;63.70
73341;BME280;61578;52.002;5.468;2023-04-06T01:45:57;101682.06;;;5.03;63.94
73341;BME280;61578;52.002;5.468;2023-04-06T01:46:28;101674.13;;;5.04;63.74
73341;BME280;61578;52.002;5.468;2023-04-06T01:46:59;101683.75;;;5.05;63.45
73341;BME280;61578;52.002;5.468;2023-04-06T01:47:30;101686.31;;;5.08;63.04
73341;BME280;61578;52.002;5.468;2023-04-06T01:48:01;101675.88;;;5.05;63.59
73341;BME280;61578;52.002;5.468;2023-04-06T01:48:32;101680.19;;;5.08;63.60
73341;BME280;61578;52.002;5.468;2023-04-06T01:49:03;101678.44;;;5.08;64.39
73341;BME280;61578;52.002;5.468;2023-04-06T01:49:33;101680.19;;;5.08;64.20
73341;BME280;61578;52.002;5.468;2023-04-06T01:50:05;101685.34;;;5.11;63.68
73341;BME280;61578;52.002;5.468;2023-04-06T01:50:36;101676.53;;;5.12;63.75
73341;BME280;61578;52.002;5.468;2023-04-06T01:51:07;101678.25;;;5.14;65.00
73341;BME280;61578;52.002;5.468;2023-04-06T01:51:40;101671.22;;;5.15;64.82
73341;BME280;61578;52.002;5.468;2023-04-06T01:52:11;101677.28;;;5.17;65.24
73341;BME280;61578;52.002;5.468;2023-04-06T01:52:42;101659.13;;;5.08;64.48
73341;BME280;61578;52.002;5.468;2023-04-06T01:53:13;101677.34;;;5.15;64.17
73341;BME280;61578;52.002;5.468;2023-04-06T01:53:44;101670.31;;;5.16;65.49
73341;BME280;61578;52.002;5.468;2023-04-06T01:54:15;101671.91;;;5.20;65.05
73341;BME280;61578;52.002;5.468;2023-04-06T01:54:46;101672.78;;;5.21;64.74
73341;BME280;61578;52.002;5.468;2023-04-06T01:55:17;101674.50;;;5.22;65.48
73341;BME280;61578;52.002;5.468;2023-04-06T01:55:48;101677.16;;;5.22;65.38
73341;BME280;61578;52.002;5.468;2023-04-06T01:56:18;101658.03;;;5.15;64.69
73341;BME280;61578;52.002;5.468;2023-04-06T01:56:50;101671.84;;;5.23;64.65
73341;BME280;61578;52.002;5.468;2023-04-06T01:57:21;101666.53;;;5.25;64.27
73341;BME280;61578;52.002;5.468;2023-04-06T01:57:52;101670.13;;;5.22;64.17
73341;BME280;61578;52.002;5.468;2023-04-06T01:58:23;101672.75;;;5.22;64.22
73341;BME280;61578;52.002;5.468;2023-04-06T01:58:53;101676.22;;;5.24;65.29
73341;BME280;61578;52.002;5.468;2023-04-06T01:59:25;101675.31;;;5.25;64.71
73341;BME280;61578;52.002;5.468;2023-04-06T01:59:56;101670.94;;;5.24;64.85
73341;BME280;61578;52.002;5.468;2023-04-06T02:00:26;101677.03;;;5.26;64.85
73341;BME280;61578;52.002;5.468;2023-04-06T02:01:03;101664.72;;;5.27;64.36
73341;BME280;61578;52.002;5.468;2023-04-06T02:01:33;101678.72;;;5.29;64.72
73341;BME280;61578;52.002;5.468;2023-04-06T02:02:04;101665.59;;;5.27;64.57
73341;BME280;61578;52.002;5.468;2023-04-06T02:02:35;101660.34;;;5.27;64.07
73341;BME280;61578;52.002;5.468;2023-04-06T02:03:06;101663.81;;;5.28;64.29
73341;BME280;61578;52.002;5.468;2023-04-06T02:03:37;101668.13;;;5.30;64.66
73341;BME280;61578;52.002;5.468;2023-04-06T02:04:07;101664.69;;;5.28;64.23
73341;BME280;61578;52.002;5.468;2023-04-06T02:04:38;101661.16;;;5.29;64.60
73341;BME280;61578;52.002;5.468;2023-04-06T02:05:09;101661.91;;;5.33;64.31
73341;BME280;61578;52.002;5.468;2023-04-06T02:05:43;101665.41;;;5.33;64.65
73341;BME280;61578;52.002;5.468;2023-04-06T02:06:13;101665.41;;;5.33;64.77
73341;BME280;61578;52.002;5.468;2023-04-06T02:06:44;101658.34;;;5.35;64.94
73341;BME280;61578;52.002;5.468;2023-04-06T02:07:15;101654.75;;;5.38;64.33
73341;BME280;61578;52.002;5.468;2023-04-06T02:07:45;101657.34;;;5.39;64.90
73341;BME280;61578;52.002;5.468;2023-04-06T02:08:16;101659.91;;;5.41;63.90
73341;BME280;61578;52.002;5.468;2023-04-06T02:08:47;101656.38;;;5.42;63.93
73341;BME280;61578;52.002;5.468;2023-04-06T02:09:17;101654.56;;;5.44;63.58
73341;BME280;61578;52.002;5.468;2023-04-06T02:09:54;101656.31;;;5.43;64.26
73341;BME280;61578;52.002;5.468;2023-04-06T02:10:27;101662.50;;;5.42;64.12
73341;BME280;61578;52.002;5.468;2023-04-06T02:10:58;101644.94;;;5.43;63.72
73341;BME280;61578;52.002;5.468;2023-04-06T02:11:31;101656.31;;;5.43;63.93
73341;BME280;61578;52.002;5.468;2023-04-06T02:12:04;101651.06;;;5.43;64.12
73341;BME280;61578;52.002;5.468;2023-04-06T02:12:35;101656.25;;;5.46;63.95
73341;BME280;61578;52.002;5.468;2023-04-06T02:13:09;101650.03;;;5.49;63.81
73341;BME280;61578;52.002;5.468;2023-04-06T02:13:40;101650.91;;;5.49;63.55
73341;BME280;61578;52.002;5.468;2023-04-06T02:14:11;101653.53;;;5.49;63.42
73341;BME280;61578;52.002;5.468;2023-04-06T02:14:42;101646.41;;;5.51;63.15
73341;BME280;61578;52.002;5.468;2023-04-06T02:15:12;101651.66;;;5.53;62.94
73341;BME280;61578;52.002;5.468;2023-04-06T02:15:43;101644.66;;;5.52;63.55
73341;BME280;61578;52.002;5.468;2023-04-06T02:16:14;101647.25;;;5.53;64.19
73341;BME280;61578;52.002;5.468;2023-04-06T02:16:49;101640.16;;;5.55;64.00
73341;BME280;61578;52.002;5.468;2023-04-06T02:17:20;101647.16;;;5.57;63.30
73341;BME280;61578;52.002;5.468;2023-04-06T02:17:51;101651.47;;;5.59;63.06
73341;BME280;61578;52.002;5.468;2023-04-06T02:18:22;101615.06;;;5.44;64.69
73341;BME280;61578;52.002;5.468;2023-04-06T02:18:53;101646.94;;;5.63;65.26
73341;BME280;61578;52.002;5.468;2023-04-06T02:19:24;101650.53;;;5.60;63.82
73341;BME280;61578;52.002;5.468;2023-04-06T02:19:58;101646.13;;;5.61;65.08
73341;BME280;61578;52.002;5.468;2023-04-06T02:20:28;101645.28;;;5.60;64.38
73341;BME280;61578;52.002;5.468;2023-04-06T02:21:00;101640.06;;;5.59;65.29
73341;BME280;61578;52.002;5.468;2023-04-06T02:21:30;101642.59;;;5.62;63.99
73341;BME280;61578;52.002;5.468;2023-04-06T02:22:01;101641.81;;;5.60;63.43
73341;BME280;61578;52.002;5.468;2023-04-06T02:22:32;101646.94;;;5.63;63.32
73341;BME280;61578;52.002;5.468;2023-04-06T02:23:03;101644.28;;;5.64;63.90
73341;BME280;61578;52.002;5.468;2023-04-06T02:23:33;101639.91;;;5.63;63.54
73341;BME280;61578;52.002;5.468;2023-04-06T02:24:04;101638.06;;;5.67;63.52
73341;BME280;61578;52.002;5.468;2023-04-06T02:24:35;101636.28;;;5.67;63.46
73341;BME280;61578;52.002;5.468;2023-04-06T02:25:07;101640.75;;;5.65;63.37
73341;BME280;61578;52.002;5.468;2023-04-06T02:25:43;101638.03;;;5.68;63.37
73341;BME280;61578;52.002;5.468;2023-04-06T02:26:14;101634.47;;;5.69;60.88
73341;BME280;61578;52.002;5.468;2023-04-06T02:26:45;101633.44;;;5.73;61.29
73341;BME280;61578;52.002;5.468;2023-04-06T02:27:15;101635.22;;;5.73;62.70
73341;BME280;61578;52.002;5.468;2023-04-06T02:27:46;101632.53;;;5.74;62.43
73341;BME280;61578;52.002;5.468;2023-04-06T02:28:17;101636.13;;;5.72;63.54
73341;BME280;61578;52.002;5.468;2023-04-06T02:28:47;101633.44;;;5.73;63.33
73341;BME280;61578;52.002;5.468;2023-04-06T02:29:21;101636.94;;;5.74;62.84
73341;BME280;61578;52.002;5.468;2023-04-06T02:29:51;101628.19;;;5.73;62.45
73341;BME280;61578;52.002;5.468;2023-04-06T02:30:22;101635.09;;;5.77;63.32
73341;BME280;61578;52.002;5.468;2023-04-06T02:30:58;101621.19;;;5.72;63.00
73341;BME280;61578;52.002;5.468;2023-04-06T02:31:31;101631.59;;;5.77;62.81
73341;BME280;61578;52.002;5.468;2023-04-06T02:32:02;101614.25;;;5.70;62.34
73341;BME280;61578;52.002;5.468;2023-04-06T02:32:32;101637.53;;;5.83;62.28
73341;BME280;61578;52.002;5.468;2023-04-06T02:33:08;101629.53;;;5.88;62.81
73341;BME280;61578;52.002;5.468;2023-04-06T02:33:39;101630.38;;;5.88;62.61
73341;BME280;61578;52.002;5.468;2023-04-06T02:34:10;101627.75;;;5.88;62.22
73341;BME280;61578;52.002;5.468;2023-04-06T02:34:42;101622.44;;;5.90;62.10
73341;BME280;61578;52.002;5.468;2023-04-06T02:35:12;101618.06;;;5.87;61.18
73341;BME280;61578;52.002;5.468;2023-04-06T02:35:44;101624.19;;;5.89;60.85
73341;BME280;61578;52.002;5.468;2023-04-06T02:36:16;101631.16;;;5.90;61.83
73341;BME280;61578;52.002;5.468;2023-04-06T02:36:46;101623.25;;;5.90;62.36
73341;BME280;61578;52.002;5.468;2023-04-06T02:37:17;101630.25;;;5.91;61.42
73341;BME280;61578;52.002;5.468;2023-04-06T02:37:50;101622.44;;;5.90;60.70
73341;BME280;61578;52.002;5.468;2023-04-06T02:38:21;101617.22;;;5.87;61.26
73341;BME280;61578;52.002;5.468;2023-04-06T02:38:52;101618.84;;;5.91;61.30
73341;BME280;61578;52.002;5.468;2023-04-06T02:39:23;101625.13;;;5.88;60.93
73341;BME280;61578;52.002;5.468;2023-04-06T02:39:53;101628.53;;;5.90;61.53
73341;BME280;61578;52.002;5.468;2023-04-06T02:40:29;101628.59;;;5.89;61.96
73341;BME280;61578;52.002;5.468;2023-04-06T02:41:00;101630.34;;;5.90;61.31
73341;BME280;61578;52.002;5.468;2023-04-06T02:41:31;101626.84;;;5.89;60.84
73341;BME280;61578;52.002;5.468;2023-04-06T02:42:04;101626.75;;;5.91;62.01
73341;BME280;61578;52.002;5.468;2023-04-06T02:42:38;101622.50;;;5.87;62.10
73341;BME280;61578;52.002;5.468;2023-04-06T02:43:09;101617.22;;;5.87;61.76
73341;BME280;61578;52.002;5.468;2023-04-06T02:43:40;101607.84;;;5.78;62.21
73341;BME280;61578;52.002;5.468;2023-04-06T02:44:10;101625.97;;;5.87;63.07
73341;BME280;61578;52.002;5.468;2023-04-06T02:44:42;101620.81;;;5.84;62.93
73341;BME280;61578;52.002;5.468;2023-04-06T02:45:14;101617.31;;;5.84;62.50
73341;BME280;61578;52.002;5.468;2023-04-06T02:45:44;101623.44;;;5.84;61.97
73341;BME280;61578;52.002;5.468;2023-04-06T02:46:16;101616.44;;;5.83;61.81
73341;BME280;61578;52.002;5.468;2023-04-06T02:46:46;101617.47;;;5.79;61.50
73341;BME280;61578;52.002;5.468;2023-04-06T02:47:17;101610.34;;;5.81;62.63
73341;BME280;61578;52.002;5.468;2023-04-06T02:47:48;101612.03;;;5.84;62.35